Time;durP1;ratioP1;P1;durP2;ratioP2;P2;SDS_P1;SDS_P2;PMS_P1;PMS_P2;Temp;Humidity;BMP_temperature;BMP_pressure;BME280_temperature;BME280_humidity;BME280_pressure;Samples;Min_cycle;Max_cycle;Signal;HPM_P1;HPM_P2
2022/09/20 00:01:46;;;;;;;;;;;14.80;52.80;;;12.75;58.96;101236.03;12251167;19;19926;-84
2022/09/20 00:05:47;;;;;;;;;;;14.80;52.90;;;12.28;59.10;101167.00;12249148;19;19930;-84
2022/09/20 00:09:49;;;;;;;;;;;14.80;52.90;;;12.60;59.18;101229.84;12248166;19;19919;-84
2022/09/20 00:13:53;;;;;;;;;;;15.10;53.00;;;12.50;59.07;101226.06;12248546;19;19922;-84
2022/09/20 00:17:55;;;;;;;;;;;14.70;52.90;;;12.44;59.19;101224.63;12247096;19;19975;-84
2022/09/20 00:21:56;;;;;;;;;;;14.70;52.90;;;12.54;59.13;101245.94;12248362;19;19921;-83
2022/09/20 00:26:00;;;;;;;;;;;14.80;53.00;;;12.39;59.21;101224.03;12244165;19;19915;-84
2022/09/20 00:30:02;;;;;;;;;;;14.60;52.90;;;12.01;59.12;101168.50;12248555;19;20337;-83
2022/09/20 00:38:23;;;;;;;;;;;14.50;52.90;;;12.30;59.29;101228.00;12246734;19;19986;-84
2022/09/20 00:42:29;;;;;;;;;;;14.50;52.90;;;12.38;59.24;101236.28;12249802;19;19939;-84
2022/09/20 00:46:42;;;;;;;;;;;14.50;52.90;;;12.35;59.18;101236.44;12257026;19;20249;-84
2022/09/20 00:50:48;;;;;;;;;;;14.50;52.90;;;12.33;59.25;101233.06;12258100;19;19906;-84
2022/09/20 00:54:49;;;;;;;;;;;14.50;52.90;;;12.43;59.15;101248.28;12259496;19;20300;-85
2022/09/20 00:59:08;;;;;;;;;;;14.50;52.90;;;12.30;59.18;101238.47;12264819;19;19946;-84
2022/09/20 01:03:10;;;;;;;;;;;14.50;52.80;;;12.39;59.10;101252.84;12271426;19;19938;-84
2022/09/20 01:07:13;;;;;;;;;;;14.50;52.80;;;12.37;59.31;101260.78;12265886;19;19918;-84
2022/09/20 01:11:15;;;;;;;;;;;14.50;52.80;;;12.32;59.26;101251.50;12266827;19;19951;-85
2022/09/20 01:15:17;;;;;;;;;;;14.40;52.70;;;12.28;59.16;101247.34;12262315;19;19915;-84
2022/09/20 01:19:40;;;;;;;;;;;14.50;52.80;;;12.35;59.10;101262.63;12259662;19;19926;-84
2022/09/20 01:24:17;;;;;;;;;;;14.40;52.70;;;12.15;59.27;101236.66;12262219;19;19921;-84
2022/09/20 01:28:19;;;;;;;;;;;14.40;52.70;;;12.13;59.14;101239.38;12263998;19;19919;-85
2022/09/20 01:32:24;;;;;;;;;;;14.40;52.70;;;12.23;59.28;101250.19;12263961;19;19962;-85
2022/09/20 01:36:40;;;;;;;;;;;14.30;52.60;;;12.16;59.35;101246.22;12258449;19;19922;-85
2022/09/20 01:41:03;;;;;;;;;;;14.40;52.70;;;12.12;59.19;101250.78;12259466;19;19915;-84
2022/09/20 01:45:23;;;;;;;;;;;14.30;52.60;;;12.14;59.38;101259.38;12256872;19;19919;-84
2022/09/20 01:50:00;;;;;;;;;;;14.30;52.60;;;11.99;59.30;101243.66;12257134;19;19915;-84
2022/09/20 01:54:23;;;;;;;;;;;14.30;52.70;;;12.09;59.29;101266.63;12252577;19;19933;-84
2022/09/20 01:58:42;;;;;;;;;;;14.20;52.70;;;12.08;59.37;101275.44;12260795;19;19923;-84
2022/09/20 02:02:52;;;;;;;;;;;14.20;52.60;;;11.95;59.32;101254.28;12258478;19;19918;-84
2022/09/20 02:07:17;;;;;;;;;;;14.10;52.60;;;11.93;59.29;101261.34;12258411;19;19914;-84
2022/09/20 02:11:28;;;;;;;;;;;14.10;52.60;;;11.79;59.23;101242.06;12258554;19;19915;-84
2022/09/20 02:15:50;;;;;;;;;;;14.10;52.60;;;11.84;59.36;101264.44;12253831;19;19915;-84
2022/09/20 02:20:15;;;;;;;;;;;14.00;52.60;;;11.84;59.29;101274.06;12259243;19;20512;-85
2022/09/20 02:24:19;;;;;;;;;;;14.00;52.60;;;11.77;59.30;101267.44;12257254;19;19984;-83
2022/09/20 02:28:48;;;;;;;;;;;14.30;52.70;;;11.63;59.33;101263.75;12260748;19;19950;-84
2022/09/20 02:32:55;;;;;;;;;;;13.90;52.60;;;11.65;59.52;101282.84;12257922;19;19915;-85
2022/09/20 02:37:17;;;;;;;;;;;13.80;52.70;;;11.64;59.36;101282.94;12257366;19;19917;-85
2022/09/20 02:41:40;;;;;;;;;;;13.80;52.80;;;11.56;59.42;101282.44;12260767;19;19919;-84
2022/09/20 02:46:24;;;;;;;;;;;13.80;52.80;;;11.55;59.46;101280.78;12252438;19;19915;-84
2022/09/20 02:50:51;;;;;;;;;;;13.70;52.90;;;11.59;59.38;101292.78;12256814;19;19943;-85
2022/09/20 02:55:05;;;;;;;;;;;13.70;53.00;;;11.58;59.38;101285.84;12255563;19;19923;-85
2022/09/20 02:59:34;;;;;;;;;;;13.70;53.10;;;11.48;59.37;101280.25;12267260;19;19915;-84
2022/09/20 03:04:02;;;;;;;;;;;13.70;53.10;;;11.60;59.53;101299.69;12255912;19;19978;-84
2022/09/20 03:08:25;;;;;;;;;;;13.70;53.10;;;11.55;59.61;101296.47;12257656;19;19919;-85
2022/09/20 03:12:56;;;;;;;;;;;13.70;53.20;;;11.61;59.56;101309.22;12256971;19;19954;-85
2022/09/20 03:17:21;;;;;;;;;;;13.70;53.20;;;11.44;59.56;101284.75;12254090;19;19964;-84
2022/09/20 03:21:27;;;;;;;;;;;13.70;53.20;;;11.62;59.47;101308.31;12254723;19;19922;-84
2022/09/20 03:25:38;;;;;;;;;;;13.70;53.20;;;11.63;59.66;101307.41;12252389;19;20345;-84
2022/09/20 03:30:18;;;;;;;;;;;13.70;53.20;;;11.63;59.48;101310.00;12255749;19;20299;-84
2022/09/20 03:34:38;;;;;;;;;;;13.70;53.40;;;11.63;59.49;101308.22;12252290;19;19919;-84
2022/09/20 03:39:06;;;;;;;;;;;13.70;53.30;;;11.65;59.44;101308.16;12255354;19;19919;-84
2022/09/20 03:43:33;;;;;;;;;;;13.70;53.20;;;11.63;59.46;101313.47;12252405;19;19911;-83
2022/09/20 03:48:17;;;;;;;;;;;13.70;53.20;;;11.61;59.55;101317.94;12253761;19;19926;-84
2022/09/20 03:52:40;;;;;;;;;;;13.70;53.20;;;11.58;59.56;101312.00;12253533;19;19966;-84
2022/09/20 03:57:03;;;;;;;;;;;13.70;53.20;;;11.55;59.58;101322.63;12254691;19;19911;-84
2022/09/20 04:01:35;;;;;;;;;;;13.70;53.30;;;11.42;59.47;101296.22;12255192;19;19926;-84
2022/09/20 04:06:24;;;;;;;;;;;13.60;53.30;;;11.49;59.73;101318.53;12247836;19;19920;-84
2022/09/20 04:10:43;;;;;;;;;;;13.60;53.30;;;11.48;59.36;101330.78;12246309;19;19922;-84
2022/09/20 04:15:05;;;;;;;;;;;13.50;53.30;;;11.43;59.62;101324.09;12248968;19;19918;-85
2022/09/20 04:19:31;;;;;;;;;;;13.50;53.70;;;11.42;59.64;101328.47;12259111;19;19919;-84
2022/09/20 04:24:02;;;;;;;;;;;13.50;53.30;;;11.41;59.49;101331.16;12260955;19;19921;-84
2022/09/20 04:28:10;;;;;;;;;;;13.50;53.40;;;11.39;59.58;101325.97;12257168;19;19911;-83
2022/09/20 04:32:30;;;;;;;;;;;13.50;53.40;;;11.41;59.74;101329.38;12252630;19;19954;-84
2022/09/20 04:37:01;;;;;;;;;;;13.50;53.40;;;11.47;59.74;101336.06;12254042;19;19933;-83
2022/09/20 04:41:32;;;;;;;;;;;13.50;53.50;;;11.46;59.74;101337.84;12255468;19;20325;-83
2022/09/20 04:45:59;;;;;;;;;;;13.50;53.50;;;11.48;59.64;101345.63;12253063;19;19915;-83
2022/09/20 04:50:37;;;;;;;;;;;13.50;53.50;;;11.50;59.69;101343.75;12260546;19;19918;-83
2022/09/20 04:55:11;;;;;;;;;;;13.50;53.50;;;11.42;59.78;101325.88;12265549;19;19911;-84
2022/09/20 04:59:40;;;;;;;;;;;13.50;53.70;;;11.53;59.68;101341.03;12266148;19;20483;-84
2022/09/20 05:04:03;;;;;;;;;;;13.60;53.80;;;11.55;59.83;101344.38;12261351;19;19915;-84
2022/09/20 05:08:39;;;;;;;;;;;13.60;53.80;;;11.59;59.79;101347.72;12253241;19;20345;-84
2022/09/20 05:13:05;;;;;;;;;;;13.60;53.80;;;11.59;59.79;101356.41;12253619;19;19911;-84
2022/09/20 05:17:24;;;;;;;;;;;13.70;53.90;;;11.65;59.79;101357.88;12255097;19;19919;-84
2022/09/20 05:21:44;;;;;;;;;;;13.70;54.00;;;11.68;59.73;101369.03;12260277;19;19918;-84
2022/09/20 05:26:10;;;;;;;;;;;13.70;54.00;;;11.71;59.84;101374.09;12251377;19;20265;-84
2022/09/20 05:30:30;;;;;;;;;;;13.70;54.00;;;11.74;59.88;101384.41;12256866;19;19918;-84
2022/09/20 05:35:04;;;;;;;;;;;13.80;54.00;;;11.77;59.93;101390.41;12255184;19;20369;-84
2022/09/20 05:39:28;;;;;;;;;;;13.80;54.20;;;11.78;59.87;101386.91;12252150;19;19919;-83
2022/09/20 05:43:32;;;;;;;;;;;13.80;54.20;;;11.81;59.86;101391.97;12244883;19;19990;-83
2022/09/20 05:47:44;;;;;;;;;;;13.80;54.20;;;11.84;59.75;101392.66;12256383;19;20321;-83
2022/09/20 05:52:23;;;;;;;;;;;13.90;54.20;;;11.91;59.95;101401.09;12259068;19;19919;-83
2022/09/20 05:56:59;;;;;;;;;;;13.90;54.20;;;11.93;59.85;101404.47;12260950;19;20344;-83
2022/09/20 06:01:22;;;;;;;;;;;13.90;54.20;;;11.95;59.87;101410.47;12256650;19;19922;-83
2022/09/20 06:05:35;;;;;;;;;;;14.00;54.20;;;11.99;59.88;101416.41;12255074;19;20255;-83
2022/09/20 06:09:58;;;;;;;;;;;14.00;54.20;;;12.02;59.97;101418.88;12260759;19;20268;-82
2022/09/20 06:14:17;;;;;;;;;;;14.00;54.10;;;11.94;59.92;101407.03;12254720;19;19931;-83
2022/09/20 06:18:48;;;;;;;;;;;14.10;54.10;;;12.10;60.00;101419.34;12256165;19;19907;-83
2022/09/20 06:22:55;;;;;;;;;;;14.10;54.10;;;12.11;60.01;101410.56;12255837;19;20469;-83
2022/09/20 06:27:01;;;;;;;;;;;14.50;54.40;;;12.23;60.23;101419.56;12254715;19;19992;-83
2022/09/20 06:31:07;;;;;;;;;;;14.20;54.30;;;11.95;60.17;101348.50;12252209;19;20258;-84
2022/09/20 06:35:09;;;;;;;;;;;14.30;54.40;;;12.54;60.21;101418.84;12249306;19;19922;-85
2022/09/20 06:44:27;;;;;;;;;;;14.60;54.80;;;12.90;60.23;101417.81;12246220;19;20372;-84
2022/09/20 06:48:30;;;;;;;;;;;14.70;54.80;;;12.94;60.12;101408.84;12252524;19;19939;-84
2022/09/20 06:52:33;;;;;;;;;;;14.90;54.90;;;13.03;60.13;101408.34;12256402;19;19939;-84
2022/09/20 06:56:35;;;;;;;;;;;15.00;54.90;;;13.07;60.13;101418.59;12250243;19;19943;-83
2022/09/20 07:00:38;;;;;;;;;;;15.10;54.80;;;13.12;60.04;101407.84;12253666;19;19914;-83
2022/09/20 07:04:40;;;;;;;;;;;15.10;54.70;;;13.25;59.97;101421.97;12251020;19;19947;-84
2022/09/20 07:08:42;;;;;;;;;;;15.30;54.70;;;13.26;60.20;101415.84;12257454;19;19947;-83
2022/09/20 07:12:43;;;;;;;;;;;15.30;54.70;;;13.43;60.26;101421.91;12252372;19;19923;-83
2022/09/20 07:16:45;;;;;;;;;;;15.70;54.90;;;13.52;60.13;101421.38;12250126;19;19946;-83
2022/09/20 07:20:47;;;;;;;;;;;15.50;54.80;;;13.34;60.22;101383.06;12254030;19;19949;-83
2022/09/20 07:24:48;;;;;;;;;;;15.60;54.70;;;13.82;60.14;101438.94;12248154;19;19908;-83
2022/09/20 07:28:50;;;;;;;;;;;15.70;54.70;;;13.83;60.21;101431.00;12249358;19;19915;-83
2022/09/20 07:32:55;;;;;;;;;;;16.00;54.80;;;14.01;60.13;101452.72;12247395;19;19986;-83
2022/09/20 07:36:59;;;;;;;;;;;16.20;54.90;;;13.81;60.16;101406.63;12241974;19;20264;-83
2022/09/20 07:41:01;;;;;;;;;;;16.20;54.90;;;13.79;60.11;101389.25;12236043;19;19919;-83
2022/09/20 07:45:02;;;;;;;;;;;16.40;54.80;;;14.32;60.31;101464.91;12244523;19;19999;-83
2022/09/20 07:49:05;;;;;;;;;;;16.20;54.60;;;14.49;60.18;101484.91;12247695;19;19943;-83
2022/09/20 07:53:06;;;;;;;;;;;16.30;54.80;;;14.57;60.22;101468.72;12235507;19;19935;-83
2022/09/20 07:57:08;;;;;;;;;;;16.40;54.60;;;14.74;60.22;101476.47;12233656;19;20294;-82
2022/09/20 08:01:12;;;;;;;;;;;16.60;54.70;;;14.82;60.07;101466.31;12242766;19;19978;-84
2022/09/20 08:05:13;;;;;;;;;;;16.70;54.70;;;14.90;60.04;101468.47;12238330;19;20257;-83
2022/09/20 08:09:14;;;;;;;;;;;16.90;54.90;;;15.12;60.27;101494.31;12245291;19;19943;-83
2022/09/20 08:13:16;;;;;;;;;;;16.90;54.60;;;15.23;60.14;101498.91;12242946;19;19914;-83
2022/09/20 08:17:18;;;;;;;;;;;17.00;54.80;;;14.86;60.08;101408.28;12240981;19;19923;-83
2022/09/20 08:21:19;;;;;;;;;;;17.20;54.60;;;15.42;60.49;101470.47;12241811;19;20290;-83
2022/09/20 08:25:21;;;;;;;;;;;17.30;54.60;;;15.69;60.40;101496.03;12235454;19;19971;-83
2022/09/20 08:29:22;;;;;;;;;;;17.50;54.50;;;15.81;60.37;101492.56;12247330;19;19933;-83
2022/09/20 08:33:23;;;;;;;;;;;17.70;54.60;;;16.05;60.23;101495.41;12246498;19;19934;-84
2022/09/20 08:37:25;;;;;;;;;;;18.10;54.70;;;16.19;60.00;101497.13;12244697;19;19919;-83
2022/09/20 08:41:41;;;;;;;;;;;17.90;54.40;;;16.31;60.14;101496.31;12246771;19;19915;-83
2022/09/20 08:45:42;;;;;;;;;;;18.20;54.40;;;16.50;60.14;101505.59;12248222;19;19966;-83
2022/09/20 08:49:44;;;;;;;;;;;18.30;54.30;;;16.34;60.22;101448.66;12256999;19;19947;-84
2022/09/20 08:53:48;;;;;;;;;;;18.60;54.40;;;16.86;59.98;101498.81;12246364;19;20006;-82
2022/09/20 08:57:52;;;;;;;;;;;18.60;54.30;;;17.07;60.01;101510.50;12250418;19;19922;-82
2022/09/20 09:01:54;;;;;;;;;;;18.80;54.10;;;17.06;60.04;101487.69;12252832;19;20626;-83
2022/09/20 09:05:57;;;;;;;;;;;18.90;53.90;;;17.33;59.86;101510.44;12257969;19;19947;-83
2022/09/20 09:09:59;;;;;;;;;;;19.30;53.80;;;17.40;59.65;101511.72;12266157;19;19941;-83
2022/09/20 09:14:46;;;;;;;;;;;19.20;53.70;;;17.31;59.51;101486.81;12261961;19;19923;-83
2022/09/20 09:18:35;;;;;;;;;;;19.30;53.70;;;17.47;59.72;101523.50;12258211;19;19948;-84
2022/09/20 09:22:37;;;;;;;;;;;19.30;53.30;;;17.52;59.79;101508.16;12259866;19;19974;-83
2022/09/20 09:26:42;;;;;;;;;;;19.40;53.30;;;17.47;59.60;101502.38;12261103;19;19934;-84
2022/09/20 09:30:46;;;;;;;;;;;19.50;52.90;;;17.42;59.48;101507.16;12262625;19;19974;-84
2022/09/20 09:34:48;;;;;;;;;;;19.50;52.90;;;17.46;59.71;101509.44;12260366;19;19930;-83
2022/09/20 09:39:10;;;;;;;;;;;19.50;52.70;;;17.52;59.67;101518.72;12263860;19;19923;-83
2022/09/20 09:43:18;;;;;;;;;;;19.40;52.90;;;17.32;59.48;101477.09;12256712;19;19918;-83
2022/09/20 09:47:27;;;;;;;;;;;19.50;52.80;;;17.65;59.68;101522.19;12258211;19;20345;-83
2022/09/20 09:51:30;;;;;;;;;;;19.60;52.90;;;17.73;59.45;101519.00;12259270;19;19937;-83
2022/09/20 09:55:59;;;;;;;;;;;19.60;52.90;;;17.90;59.64;101526.56;12249476;19;19910;-82
2022/09/20 10:00:17;;;;;;;;;;;19.70;52.90;;;18.07;59.28;101527.13;12248384;19;20346;-82
2022/09/20 10:04:20;;;;;;;;;;;19.80;53.20;;;17.96;59.08;101509.41;12254693;19;20258;-82
2022/09/20 10:08:34;;;;;;;;;;;19.80;52.90;;;18.11;59.31;101513.53;12255613;19;20322;-82
2022/09/20 10:12:43;;;;;;;;;;;20.00;52.60;;;18.19;58.78;101515.63;12255740;19;19930;-83
2022/09/20 10:17:06;;;;;;;;;;;20.00;52.10;;;18.26;58.75;101516.03;12252458;19;19933;-83
2022/09/20 10:21:27;;;;;;;;;;;20.10;52.10;;;18.15;58.66;101503.59;12257096;19;19919;-82
2022/09/20 10:26:06;;;;;;;;;;;20.10;52.50;;;18.27;59.09;101507.13;12252884;19;19932;-82
2022/09/20 10:30:30;;;;;;;;;;;20.10;52.30;;;18.13;58.78;101477.28;12258385;19;19918;-81
2022/09/20 10:34:56;;;;;;;;;;;20.20;52.00;;;18.32;58.82;101511.09;12250997;19;19915;-81
2022/09/20 10:39:09;;;;;;;;;;;20.20;51.60;;;18.35;59.05;101508.22;12248387;19;20269;-82
2022/09/20 10:43:17;;;;;;;;;;;20.20;51.90;;;18.50;59.12;101508.88;12243258;19;19929;-82
2022/09/20 10:47:23;;;;;;;;;;;20.30;51.90;;;18.52;58.78;101491.09;12265713;19;19907;-81
2022/09/20 10:51:50;;;;;;;;;;;20.40;52.00;;;18.70;58.79;101511.78;12262158;19;19919;-82
2022/09/20 10:56:04;;;;;;;;;;;20.50;51.80;;;18.64;58.34;101518.41;12260466;19;19915;-83
2022/09/20 11:00:33;;;;;;;;;;;20.60;51.60;;;18.55;58.75;101527.03;12257680;19;19935;-82
2022/09/20 11:04:51;;;;;;;;;;;20.50;51.50;;;18.42;58.36;101553.59;12253594;19;19915;-82
2022/09/20 11:08:56;;;;;;;;;;;20.50;51.80;;;18.19;57.86;101583.53;12251216;19;19953;-83
2022/09/20 11:13:04;;;;;;;;;;;20.40;51.90;;;17.55;57.66;101568.72;12248146;19;19970;-83
2022/09/20 11:17:24;;;;;;;;;;;20.10;51.30;;;17.03;57.92;101561.78;12246734;19;19922;-83
2022/09/20 11:21:36;;;;;;;;;;;19.80;50.80;;;16.72;58.14;101563.03;12252539;19;19915;-83
2022/09/20 11:26:03;;;;;;;;;;;19.30;51.10;;;16.52;58.52;101566.97;12248079;19;19956;-83
2022/09/20 11:30:19;;;;;;;;;;;19.00;51.10;;;16.36;58.72;101578.56;12248615;19;20264;-83
2022/09/20 11:34:28;;;;;;;;;;;18.70;51.30;;;16.09;58.79;101560.13;12249366;19;20388;-83
2022/09/20 11:38:46;;;;;;;;;;;18.70;51.80;;;16.20;59.02;101606.84;12249766;19;19907;-84
2022/09/20 11:42:48;;;;;;;;;;;18.40;52.00;;;16.13;58.84;101609.03;12248588;19;19918;-84
2022/09/20 11:46:52;;;;;;;;;;;18.20;52.20;;;15.86;58.62;101587.09;12249773;19;19939;-84
2022/09/20 11:51:48;;;;;;;;;;;18.10;52.10;;;15.82;58.65;101609.31;12249461;19;19930;-85
2022/09/20 11:56:02;;;;;;;;;;;18.00;52.00;;;15.77;58.81;101627.19;12245176;19;19939;-84
2022/09/20 12:00:06;;;;;;;;;;;17.80;52.00;;;15.55;58.82;101611.84;12247917;19;19929;-85
2022/09/20 12:04:17;;;;;;;;;;;17.80;52.20;;;15.64;58.85;101635.81;12230889;19;20319;-85
2022/09/20 12:08:26;;;;;;;;;;;17.70;52.30;;;15.61;58.87;101622.00;12250915;19;19928;-85
2022/09/20 12:12:43;;;;;;;;;;;17.70;52.60;;;15.65;58.92;101623.50;12248343;19;19918;-84
2022/09/20 12:16:47;;;;;;;;;;;17.60;52.60;;;15.65;58.87;101608.53;12247442;19;19923;-84
2022/09/20 12:20:48;;;;;;;;;;;17.60;52.80;;;15.68;59.15;101625.94;12248414;19;19979;-85
2022/09/20 12:25:09;;;;;;;;;;;17.50;52.80;;;15.69;59.04;101614.50;12248359;19;19923;-84
2022/09/20 12:29:34;;;;;;;;;;;17.60;52.90;;;15.80;58.88;101619.13;12246097;19;19979;-85
2022/09/20 12:34:00;;;;;;;;;;;17.60;53.10;;;15.89;58.91;101621.16;12244603;19;19931;-83
2022/09/20 12:38:20;;;;;;;;;;;17.70;53.30;;;15.97;58.94;101612.78;12244429;19;19917;-84
2022/09/20 12:42:27;;;;;;;;;;;17.70;53.30;;;15.91;58.83;101592.94;12264955;19;19922;-84
2022/09/20 12:46:35;;;;;;;;;;;17.80;53.20;;;16.03;58.71;101599.19;12273929;19;19915;-84
2022/09/20 12:54:57;;;;;;;;;;;17.90;53.30;;;16.10;58.87;101597.88;12261242;19;19922;-84
2022/09/20 12:59:04;;;;;;;;;;;17.90;53.10;;;16.10;59.12;101582.91;12257209;19;19935;-84
2022/09/20 13:03:20;;;;;;;;;;;18.00;53.20;;;16.28;58.90;101604.59;12264882;19;20279;-83
2022/09/20 13:07:40;;;;;;;;;;;18.10;53.30;;;16.23;58.70;101584.72;12258954;19;19918;-84
2022/09/20 13:11:52;;;;;;;;;;;18.10;53.10;;;16.17;58.79;101571.94;12263174;19;19918;-83
2022/09/20 13:15:54;;;;;;;;;;;18.20;53.30;;;16.40;59.12;101591.53;12255472;19;19927;-83
2022/09/20 13:19:56;;;;;;;;;;;18.40;53.50;;;16.37;58.77;101577.63;12262058;19;19915;-83
2022/09/20 13:23:58;;;;;;;;;;;18.30;53.40;;;16.49;58.79;101593.56;12257124;19;19919;-83
2022/09/20 13:28:31;;;;;;;;;;;18.40;53.50;;;16.66;58.73;101617.03;12260053;19;19915;-83
2022/09/20 13:32:33;;;;;;;;;;;18.40;53.50;;;16.71;58.99;101611.44;12259818;19;19922;-83
2022/09/20 13:36:36;;;;;;;;;;;18.50;53.50;;;16.76;58.82;101612.81;12259541;19;20313;-84
2022/09/20 13:40:42;;;;;;;;;;;18.80;53.70;;;16.81;58.86;101608.09;12257698;19;20424;-84
2022/09/20 13:44:43;;;;;;;;;;;18.60;53.30;;;16.71;58.74;101601.72;12256668;19;19907;-83
2022/09/20 13:48:46;;;;;;;;;;;18.60;53.00;;;16.77;59.00;101616.34;12244281;19;19922;-82
2022/09/20 13:52:57;;;;;;;;;;;18.60;52.60;;;16.69;58.85;101622.09;12256559;19;19919;-83
2022/09/20 13:57:03;;;;;;;;;;;18.90;52.80;;;16.60;58.54;101634.09;12258969;19;19990;-82
2022/09/20 14:01:17;;;;;;;;;;;18.60;52.60;;;16.49;58.87;101618.13;12259480;19;20696;-82
2022/09/20 14:05:22;;;;;;;;;;;18.50;52.10;;;16.43;59.00;101617.69;12253012;19;19918;-82
2022/09/20 14:09:35;;;;;;;;;;;18.40;52.20;;;16.63;58.90;101638.31;12257034;19;19922;-82
2022/09/20 14:13:40;;;;;;;;;;;18.50;52.40;;;16.55;58.76;101620.38;12255950;19;19922;-83
2022/09/20 14:17:41;;;;;;;;;;;18.50;52.50;;;16.76;58.52;101662.09;12253856;19;19911;-83
2022/09/20 14:21:43;;;;;;;;;;;18.60;52.40;;;16.70;58.52;101660.72;12256461;19;19915;-82
2022/09/20 14:26:04;;;;;;;;;;;18.60;52.30;;;16.61;58.37;101656.06;12252650;19;19926;-83
2022/09/20 14:30:06;;;;;;;;;;;18.50;52.40;;;16.55;58.59;101666.97;12256881;19;19919;-83
2022/09/20 14:34:11;;;;;;;;;;;18.60;52.40;;;16.43;58.36;101659.88;12247093;19;19945;-83
2022/09/20 14:38:13;;;;;;;;;;;18.50;52.30;;;16.35;58.58;101655.94;12251125;19;20308;-83
2022/09/20 14:42:22;;;;;;;;;;;18.50;52.40;;;16.31;58.48;101656.22;12252685;19;19907;-84
2022/09/20 14:46:33;;;;;;;;;;;18.40;52.40;;;16.34;58.62;101667.44;12255797;19;19919;-83
2022/09/20 14:50:39;;;;;;;;;;;18.40;52.50;;;16.43;58.63;101673.91;12250842;19;19930;-83
2022/09/20 14:54:40;;;;;;;;;;;18.40;52.60;;;16.43;58.52;101675.69;12251586;19;19925;-84
2022/09/20 14:59:04;;;;;;;;;;;18.40;52.60;;;16.42;58.68;101676.63;12248147;19;19918;-83
2022/09/20 15:03:06;;;;;;;;;;;18.30;52.60;;;16.24;58.46;101644.41;12250878;19;19922;-83
2022/09/20 15:07:10;;;;;;;;;;;18.30;52.70;;;16.40;58.37;101674.09;12250991;19;20338;-87
2022/09/20 15:11:17;;;;;;;;;;;18.40;52.80;;;15.96;58.49;101617.19;12250620;19;20508;-87
2022/09/20 15:15:19;;;;;;;;;;;18.30;52.90;;;16.10;58.57;101640.88;12248320;19;20272;-87
2022/09/20 15:19:20;;;;;;;;;;;18.30;52.90;;;16.17;58.80;101643.09;12249662;19;19930;-87
2022/09/20 15:23:21;;;;;;;;;;;18.30;52.90;;;16.08;58.62;101626.94;12251772;19;19930;-87
2022/09/20 15:27:23;;;;;;;;;;;18.30;52.90;;;16.38;58.71;101676.00;12250254;19;19919;-86
2022/09/20 15:31:24;;;;;;;;;;;18.60;53.00;;;16.35;58.49;101669.13;12250582;19;19963;-86
2022/09/20 15:35:26;;;;;;;;;;;18.30;52.80;;;16.32;58.85;101665.84;12245603;19;19923;-87
2022/09/20 15:39:27;;;;;;;;;;;18.50;52.90;;;16.33;58.50;101657.81;12249173;19;19915;-86
2022/09/20 15:43:29;;;;;;;;;;;18.60;52.80;;;16.43;58.59;101673.06;12247282;19;19923;-87
2022/09/20 15:47:31;;;;;;;;;;;18.30;52.60;;;16.45;58.65;101684.38;12249943;19;19915;-86
2022/09/20 15:51:32;;;;;;;;;;;18.80;52.80;;;16.37;58.62;101677.78;12249574;19;19921;-86
2022/09/20 15:55:37;;;;;;;;;;;18.40;52.60;;;16.37;58.47;101688.34;12244194;19;19919;-86
2022/09/20 15:59:39;;;;;;;;;;;18.40;52.40;;;16.32;58.68;101669.31;12248505;19;19919;-85
2022/09/20 16:03:41;;;;;;;;;;;18.30;52.40;;;16.40;58.57;101702.28;12247848;19;19940;-86
2022/09/20 16:07:44;;;;;;;;;;;18.30;52.30;;;16.27;58.63;101679.31;12249151;19;19926;-87
2022/09/20 16:11:47;;;;;;;;;;;18.30;52.30;;;16.21;58.58;101674.44;12250984;19;19919;-86
2022/09/20 16:15:56;;;;;;;;;;;18.30;52.20;;;16.23;58.44;101690.13;12244262;19;19919;-86
2022/09/20 16:19:57;;;;;;;;;;;18.30;52.10;;;16.21;58.71;101692.91;12250498;19;20448;-87
2022/09/20 16:23:59;;;;;;;;;;;18.20;52.10;;;16.18;58.30;101689.63;12247540;19;19911;-86
2022/09/20 16:28:00;;;;;;;;;;;18.20;52.10;;;16.27;58.45;101715.38;12247830;19;19925;-86
2022/09/20 16:32:07;;;;;;;;;;;18.20;52.10;;;16.26;58.39;101717.16;12246989;19;20289;-86
2022/09/20 16:36:08;;;;;;;;;;;18.20;52.00;;;15.93;58.52;101696.41;12243688;19;19954;-86
2022/09/20 16:40:12;;;;;;;;;;;18.10;51.90;;;16.15;58.24;101738.09;12247898;19;19911;-86
2022/09/20 16:44:14;;;;;;;;;;;18.10;51.90;;;16.02;58.30;101724.81;12259470;19;19917;-88
2022/09/20 16:48:16;;;;;;;;;;;18.10;51.90;;;16.04;58.32;101740.53;12254322;19;19911;-86
2022/09/20 16:52:17;;;;;;;;;;;18.10;51.90;;;16.02;58.18;101739.78;12250899;19;20591;-86
2022/09/20 16:56:30;;;;;;;;;;;18.10;51.90;;;15.90;58.25;101736.09;12248696;19;19922;-86
2022/09/20 17:00:32;;;;;;;;;;;17.90;51.80;;;15.81;58.34;101734.88;12251616;19;20345;-86
2022/09/20 17:04:33;;;;;;;;;;;17.90;51.80;;;15.68;58.35;101729.50;12242792;19;19919;-86
2022/09/20 17:08:38;;;;;;;;;;;17.80;51.90;;;15.48;58.34;101707.00;12251104;19;19914;-86
2022/09/20 17:12:45;;;;;;;;;;;17.70;51.80;;;15.54;58.48;101726.84;12246790;19;19915;-86
2022/09/20 17:16:47;;;;;;;;;;;17.70;51.80;;;15.52;58.36;101738.41;12244583;19;19907;-86
2022/09/20 17:20:48;;;;;;;;;;;17.70;51.90;;;15.54;58.49;101763.69;12245789;19;19942;-87
2022/09/20 17:24:50;;;;;;;;;;;17.80;52.00;;;15.56;58.41;101763.63;12245526;19;19934;-86
2022/09/20 17:28:56;;;;;;;;;;;17.60;51.90;;;15.31;58.40;101737.88;12259909;19;19919;-85
2022/09/20 17:32:58;;;;;;;;;;;17.60;51.90;;;15.27;58.36;101753.84;12257876;19;19931;-86
2022/09/20 17:37:00;;;;;;;;;;;17.50;51.90;;;15.34;58.46;101771.91;12256388;19;19922;-86
2022/09/20 17:41:10;;;;;;;;;;;17.40;51.90;;;15.37;58.53;101785.75;12259145;19;20358;-86
2022/09/20 17:45:12;;;;;;;;;;;17.40;52.00;;;15.29;58.55;101781.88;12254990;19;19914;-86
2022/09/20 17:49:15;;;;;;;;;;;17.40;52.00;;;15.27;58.60;101788.06;12257499;19;19927;-86
2022/09/20 17:53:17;;;;;;;;;;;17.40;52.10;;;15.01;58.31;101752.75;12257032;19;19928;-86
2022/09/20 17:57:18;;;;;;;;;;;17.30;52.00;;;15.17;58.51;101793.94;12252318;19;19930;-86
2022/09/20 18:01:21;;;;;;;;;;;17.20;52.00;;;15.13;58.52;101809.06;12258476;19;19974;-86
2022/09/20 18:05:23;;;;;;;;;;;17.20;52.00;;;15.03;58.55;101794.75;12254044;19;19922;-86
2022/09/20 18:09:25;;;;;;;;;;;17.30;52.10;;;14.87;58.55;101783.38;12257952;19;19911;-86
2022/09/20 18:13:29;;;;;;;;;;;17.00;52.00;;;14.85;58.57;101796.63;12255852;19;19956;-86
2022/09/20 18:17:30;;;;;;;;;;;17.00;52.00;;;14.52;58.31;101760.75;12253862;19;20011;-86
2022/09/20 18:21:34;;;;;;;;;;;17.00;51.90;;;14.67;58.52;101802.91;12256504;19;20341;-86
2022/09/20 18:26:20;;;;;;;;;;;16.90;51.90;;;14.59;58.57;101800.69;12253225;19;19923;-86
2022/09/20 18:29:57;;;;;;;;;;;16.80;51.90;;;14.54;58.42;101802.72;12254387;19;20317;-86
2022/09/20 18:33:59;;;;;;;;;;;17.00;52.10;;;14.46;58.58;101805.75;12251348;19;19995;-86
2022/09/20 18:38:01;;;;;;;;;;;17.00;52.10;;;14.55;58.44;101826.28;12248698;19;19922;-86
2022/09/20 18:42:02;;;;;;;;;;;16.60;52.00;;;14.54;58.60;101837.75;12259330;19;19914;-86
2022/09/20 18:46:03;;;;;;;;;;;16.60;52.00;;;14.35;58.59;101819.47;12258506;19;19927;-86
2022/09/20 18:50:08;;;;;;;;;;;16.50;52.00;;;14.29;58.68;101813.69;12258567;19;19903;-87
2022/09/20 18:54:10;;;;;;;;;;;16.50;52.10;;;14.43;58.56;101850.59;12250424;19;19927;-86
2022/09/20 18:58:17;;;;;;;;;;;16.50;52.10;;;14.29;58.67;101835.56;12251195;19;19986;-86
2022/09/20 19:03:10;;;;;;;;;;;16.40;52.00;;;14.33;58.48;101857.25;12252503;19;19919;-87